• Join FlightAware (Why Join?)
  • Login
  • US Flag 
10:58AM EDT


 

Airport Tracker/Info


-or-


 

Live Flight TrackerFlight Track Log ✈ N658DS ✈ 23-Jun-2013 ✈ KBFM - 40J

Flight Track Log - Related Links

Times and Time Zones

All times are in EDT time to prevent confusion due to time zone crossing. See the N658DS flight status page for this flight to view local times or setup timezone preferences in your user account.

Time Position Orientation Groundspeed Altitude Reporting Facility
EDT Latitude Longitude Course Direction KTS MPH feet Rate Location/Type
08:04AM 30.5719 -88.0867 97° East 129 148 9,500  Level Jacksonville Center
08:04AM 30.5772 -88.0556 79° East 128 147 9,500  Level Jacksonville Center
08:05AM 30.5811 -88.0147 84° East 127 146 9,500  Level Jacksonville Center
08:06AM 30.5867 -87.9764 80° East 128 147 9,500  Level Jacksonville Center
08:07AM 30.5950 -87.9286 79° East 131 151 9,500  Level Jacksonville Center
08:08AM 30.6008 -87.8806 82° East 130 150 9,500  Level Jacksonville Center
08:09AM 30.5969 -87.7907 97° East  Level Estimated
08:09AM 30.6044 -87.8422 84° East 126 145 9,500  Level Jacksonville Center
08:10AM 30.6103 -87.7992 81° East 128 147 9,500  Level Jacksonville Center
08:11AM 30.6161 -87.7608 80° East 129 148 9,500  Level Jacksonville Center
08:12AM 30.6197 -87.7175 84° East 129 148 9,500  Level Jacksonville Center
08:13AM 30.6275 -87.6817 76° East 128 147 9,500  Level Jacksonville Center
08:14AM 30.6331 -87.6411 81° East 127 146 9,500  Level Jacksonville Center
08:15AM 30.6367 -87.6000 84° East 128 147 9,500  Level Jacksonville Center
08:16AM 30.6422 -87.5642 80° East 130 150 9,500  Level Jacksonville Center
08:17AM 30.6481 -87.5186 82° East 130 150 9,500  Level Jacksonville Center
08:18AM 30.6536 -87.4803 80° East 132 152 9,500  Level Jacksonville Center
08:19AM 30.6594 -87.4369 81° East 127 146 9,500  Level Jacksonville Center
08:20AM 30.6650 -87.3964 81° East 126 145 9,500  Level Jacksonville Center
08:21AM 30.6706 -87.3556 81° East 128 147 9,500  Level Jacksonville Center
08:22AM 30.6761 -87.3147 81° East 129 148 9,500  Level Jacksonville Center
08:23AM 30.6817 -87.2739 81° East 127 146 9,500  Level Jacksonville Center
08:24AM 30.6853 -87.2356 84° East 126 145 9,500  Level Jacksonville Center
08:25AM 30.6928 -87.1922 79° East 128 147 9,500  Level Jacksonville Center
08:26AM 30.6986 -87.1492 81° East 131 151 9,500  Level Jacksonville Center
08:27AM 30.7019 -87.1106 84° East 128 147 9,500  Level Jacksonville Center
08:29AM 30.6791 -87.0722 125° Southeast  Level FlightAware Approximate
08:36AM 30.5556 -86.8114 100° East  Level FlightAware Approximate
08:37AM 30.5490 -86.7691 100° East  Level FlightAware Approximate
08:38AM 30.5425 -86.7268 100° East  Level FlightAware Approximate
08:39AM 30.5359 -86.6845 100° East  Level FlightAware Approximate
08:40AM 30.5293 -86.6422 100° East  Level FlightAware Approximate
08:41AM 30.5227 -86.5999 100° East  Level FlightAware Approximate
08:42AM 30.5161 -86.5576 100° East  Level FlightAware Approximate
08:43AM 30.5094 -86.5153 100° East  Level FlightAware Approximate
08:44AM 30.5028 -86.4730 100° East  Level FlightAware Approximate
08:45AM 30.4961 -86.4307 100° East  Level FlightAware Approximate
08:46AM 30.4895 -86.3885 100° East  Level FlightAware Approximate
08:47AM 30.4828 -86.3462 100° East  Level FlightAware Approximate
08:48AM 30.4761 -86.3039 100° East  Level FlightAware Approximate
08:49AM 30.4694 -86.2617 100° East  Level FlightAware Approximate
08:50AM 30.4626 -86.2195 100° East  Level FlightAware Approximate
08:51AM 30.4559 -86.1772 100° East  Level FlightAware Approximate
08:51AM 30.8114 -86.1603 99° East 128 147 9,500  Level Jacksonville Center
08:52AM 30.4491 -86.1350 101° East  Level FlightAware Approximate
08:52AM 30.8039 -86.1214 103° East 128 147 9,500  Level Jacksonville Center
08:53AM 30.4424 -86.0928 101° East  Level FlightAware Approximate
08:53AM 30.7967 -86.0800 101° East 123 142 9,500  Level Jacksonville Center
08:54AM 30.4356 -86.0505 101° East  Level FlightAware Approximate
08:54AM 30.7892 -86.0433 103° East 136 157 9,500  Level Jacksonville Center
08:55AM 30.4293 -86.0053 99° East  Level Estimated
08:55AM 30.7797 -86.0044 106° East 141 162 9,500  Level Jacksonville Center
08:56AM 30.7703 -85.9656 106° East 131 151 9,500  Level Jacksonville Center
08:57AM 30.7606 -85.9264 106° East 126 145 9,500  Level Jacksonville Center
08:58AM 30.7533 -85.8853 102° East 131 151 9,500  Level Jacksonville Center
08:59AM 30.7500 -85.8464 96° East 125 144 9,500  Level Jacksonville Center
09:00AM 30.7425 -85.8075 103° East 125 144 9,500  Level Jacksonville Center
09:01AM 30.7311 -85.7661 108° East 125 144 9,500  Level Jacksonville Center
09:02AM 30.7192 -85.7319 112° Southeast 125 144 9,500  Level Jacksonville Center
09:03AM 30.7056 -85.6928 112° Southeast 120 138 9,500  Level Jacksonville Center
09:04AM 30.6917 -85.6586 115° Southeast 125 144 9,500  Level Jacksonville Center
09:05AM 30.6736 -85.6217 120° Southeast 120 138 9,500  Level Jacksonville Center
09:06AM 30.6578 -85.5875 118° Southeast 125 144 9,500 -120 Level Jacksonville Center
09:07AM 30.6419 -85.5461 114° Southeast 125 144 9,300 -540 Descending Jacksonville Center
09:08AM 30.6303 -85.5047 108° East 130 150 8,500 -480 Descending Jacksonville Center
09:09AM 30.6164 -85.4656 112° Southeast 136 157 8,400  Descending Jacksonville Center
09:10AM 30.6086 -85.4292 104° East 131 151 8,600 60 Climbing Jacksonville Center
09:11AM 30.5947 -85.3928 114° Southeast 126 145 8,600  Level Jacksonville Center
09:12AM 30.5853 -85.3539 106° East 126 145 8,600  Level Jacksonville Center
09:13AM 30.5775 -85.3175 104° East 126 145 8,700 180 Climbing Jacksonville Center
09:14AM 30.5697 -85.2811 104° East 126 145 9,000 300 Climbing Jacksonville Center
09:15AM 30.5622 -85.2472 104° East 116 133 9,300 240 Climbing Jacksonville Center
09:16AM 30.5564 -85.2133 101° East 103 119 9,500 60 Climbing Jacksonville Center
09:17AM 30.5486 -85.1792 105° East 108 124 9,500 -180 Level Jacksonville Center
09:18AM 30.5392 -85.1356 104° East 115 132 9,200 -300 Descending Jacksonville Center
09:19AM 30.5294 -85.0944 105° East 125 144 8,900 -360 Descending Jacksonville Center
09:20AM 30.5217 -85.0556 103° East 125 144 8,500 -420 Descending Jacksonville Center
09:21AM 30.5078 -85.0144 111° Southeast 131 151 8,100 -420 Descending Jacksonville Center
09:22AM 30.4958 -84.9828 114° Southeast 126 145 7,700 -420 Descending Jacksonville Center
09:23AM 30.4775 -84.9439 119° Southeast 126 145 7,300 -420 Descending Jacksonville Center
09:24AM 30.4614 -84.9072 117° Southeast 126 145 6,900 -420 Descending Jacksonville Center
09:25AM 30.4453 -84.8683 116° Southeast 126 145 6,500 -420 Descending Jacksonville Center
09:26AM 30.4356 -84.8344 108° East 126 145 6,100 -420 Descending Jacksonville Center
09:27AM 30.4236 -84.7981 111° Southeast 121 139 5,700 -420 Descending Jacksonville Center
09:29AM 30.4049 -84.7283 107° East  Level FlightAware Approximate
09:36AM 30.3320 -84.4575 107° East  Level FlightAware Approximate